sensor_id;sensor_type;location;lat;lon;timestamp;temperature;humidity
57058;DHT22;74999;52.848;6.748;2024-03-06T00:01:34;6.40;99.90
57058;DHT22;74999;52.848;6.748;2024-03-06T00:04:02;6.30;99.90
57058;DHT22;74999;52.848;6.748;2024-03-06T00:06:29;6.30;99.90
57058;DHT22;74999;52.848;6.748;2024-03-06T00:08:55;6.40;99.90
57058;DHT22;74999;52.848;6.748;2024-03-06T00:11:21;6.30;99.90
57058;DHT22;74999;52.848;6.748;2024-03-06T00:13:47;6.40;99.90
57058;DHT22;74999;52.848;6.748;2024-03-06T00:16:13;6.30;99.90
57058;DHT22;74999;52.848;6.748;2024-03-06T00:18:39;6.30;99.90
57058;DHT22;74999;52.848;6.748;2024-03-06T00:21:05;6.30;99.90
57058;DHT22;74999;52.848;6.748;2024-03-06T00:23:32;6.30;99.90
57058;DHT22;74999;52.848;6.748;2024-03-06T00:25:57;6.30;99.90
57058;DHT22;74999;52.848;6.748;2024-03-06T00:28:23;6.40;99.90
57058;DHT22;74999;52.848;6.748;2024-03-06T00:30:49;6.20;99.90
57058;DHT22;74999;52.848;6.748;2024-03-06T00:33:15;6.30;99.90
57058;DHT22;74999;52.848;6.748;2024-03-06T00:35:40;6.20;99.90
57058;DHT22;74999;52.848;6.748;2024-03-06T00:38:06;6.30;99.90
57058;DHT22;74999;52.848;6.748;2024-03-06T00:40:32;6.20;99.90
57058;DHT22;74999;52.848;6.748;2024-03-06T00:42:58;6.20;99.90
57058;DHT22;74999;52.848;6.748;2024-03-06T00:45:24;6.20;99.90
57058;DHT22;74999;52.848;6.748;2024-03-06T00:47:50;6.20;99.90
57058;DHT22;74999;52.848;6.748;2024-03-06T00:50:15;6.30;99.90
57058;DHT22;74999;52.848;6.748;2024-03-06T00:52:45;6.30;99.90
57058;DHT22;74999;52.848;6.748;2024-03-06T00:55:11;6.50;99.90
57058;DHT22;74999;52.848;6.748;2024-03-06T00:57:36;6.30;99.90
57058;DHT22;74999;52.848;6.748;2024-03-06T01:00:05;6.30;99.90
57058;DHT22;74999;52.848;6.748;2024-03-06T01:02:40;6.30;99.90
57058;DHT22;74999;52.848;6.748;2024-03-06T01:05:06;6.20;99.90
57058;DHT22;74999;52.848;6.748;2024-03-06T01:07:33;6.20;99.90
57058;DHT22;74999;52.848;6.748;2024-03-06T01:09:59;6.10;99.90
57058;DHT22;74999;52.848;6.748;2024-03-06T01:12:26;6.20;99.90
57058;DHT22;74999;52.848;6.748;2024-03-06T01:14:52;6.10;99.90
57058;DHT22;74999;52.848;6.748;2024-03-06T01:17:18;6.10;99.90
57058;DHT22;74999;52.848;6.748;2024-03-06T01:19:44;6.10;99.90
57058;DHT22;74999;52.848;6.748;2024-03-06T01:22:10;6.20;99.90
57058;DHT22;74999;52.848;6.748;2024-03-06T01:24:36;6.00;99.90
57058;DHT22;74999;52.848;6.748;2024-03-06T01:27:02;6.00;99.90
57058;DHT22;74999;52.848;6.748;2024-03-06T01:29:31;6.00;99.90
57058;DHT22;74999;52.848;6.748;2024-03-06T01:31:58;5.90;99.90
57058;DHT22;74999;52.848;6.748;2024-03-06T01:34:24;6.50;99.90
57058;DHT22;74999;52.848;6.748;2024-03-06T01:36:50;6.00;99.90
57058;DHT22;74999;52.848;6.748;2024-03-06T01:39:16;6.00;99.90
57058;DHT22;74999;52.848;6.748;2024-03-06T01:41:49;6.00;99.90
57058;DHT22;74999;52.848;6.748;2024-03-06T01:44:16;5.90;99.90
57058;DHT22;74999;52.848;6.748;2024-03-06T01:46:46;6.20;99.90
57058;DHT22;74999;52.848;6.748;2024-03-06T01:49:15;6.00;99.90
57058;DHT22;74999;52.848;6.748;2024-03-06T01:51:42;6.00;99.90
57058;DHT22;74999;52.848;6.748;2024-03-06T01:54:10;6.00;99.90
57058;DHT22;74999;52.848;6.748;2024-03-06T01:56:38;5.90;99.90
57058;DHT22;74999;52.848;6.748;2024-03-06T01:59:07;5.90;99.90
57058;DHT22;74999;52.848;6.748;2024-03-06T02:01:33;6.20;99.90
57058;DHT22;74999;52.848;6.748;2024-03-06T02:03:59;6.00;99.90
57058;DHT22;74999;52.848;6.748;2024-03-06T02:06:25;6.20;99.90
57058;DHT22;74999;52.848;6.748;2024-03-06T02:08:51;5.90;99.90
57058;DHT22;74999;52.848;6.748;2024-03-06T02:11:17;5.90;99.90
57058;DHT22;74999;52.848;6.748;2024-03-06T02:13:43;6.00;99.90
57058;DHT22;74999;52.848;6.748;2024-03-06T02:16:09;5.90;99.90
57058;DHT22;74999;52.848;6.748;2024-03-06T02:18:36;6.00;99.90
57058;DHT22;74999;52.848;6.748;2024-03-06T02:21:03;5.80;99.90
57058;DHT22;74999;52.848;6.748;2024-03-06T02:23:30;5.80;99.90
57058;DHT22;74999;52.848;6.748;2024-03-06T02:25:56;5.80;99.90
57058;DHT22;74999;52.848;6.748;2024-03-06T02:28:21;5.90;99.90
57058;DHT22;74999;52.848;6.748;2024-03-06T02:30:50;6.00;99.90
57058;DHT22;74999;52.848;6.748;2024-03-06T02:33:16;5.90;99.90
57058;DHT22;74999;52.848;6.748;2024-03-06T02:35:43;5.90;99.90
57058;DHT22;74999;52.848;6.748;2024-03-06T02:38:10;5.90;99.90
57058;DHT22;74999;52.848;6.748;2024-03-06T02:40:36;6.00;99.90
57058;DHT22;74999;52.848;6.748;2024-03-06T02:43:01;5.80;99.90
57058;DHT22;74999;52.848;6.748;2024-03-06T02:45:27;5.90;99.90
57058;DHT22;74999;52.848;6.748;2024-03-06T02:47:53;5.90;99.90
57058;DHT22;74999;52.848;6.748;2024-03-06T02:50:19;5.90;99.90
57058;DHT22;74999;52.848;6.748;2024-03-06T02:52:46;5.90;99.90
57058;DHT22;74999;52.848;6.748;2024-03-06T02:55:12;6.10;99.90
57058;DHT22;74999;52.848;6.748;2024-03-06T02:57:37;5.90;99.90
57058;DHT22;74999;52.848;6.748;2024-03-06T03:00:03;5.90;99.90
57058;DHT22;74999;52.848;6.748;2024-03-06T03:02:29;6.00;99.90
57058;DHT22;74999;52.848;6.748;2024-03-06T03:04:55;6.00;99.90
57058;DHT22;74999;52.848;6.748;2024-03-06T03:07:20;5.90;99.90
57058;DHT22;74999;52.848;6.748;2024-03-06T03:09:46;5.90;99.90
57058;DHT22;74999;52.848;6.748;2024-03-06T03:12:15;5.90;99.90
57058;DHT22;74999;52.848;6.748;2024-03-06T03:14:41;5.90;99.90
57058;DHT22;74999;52.848;6.748;2024-03-06T03:17:07;5.80;99.90
57058;DHT22;74999;52.848;6.748;2024-03-06T03:19:33;5.90;99.90
57058;DHT22;74999;52.848;6.748;2024-03-06T03:21:59;6.00;99.90
57058;DHT22;74999;52.848;6.748;2024-03-06T03:24:25;5.80;99.90
57058;DHT22;74999;52.848;6.748;2024-03-06T03:26:53;5.90;99.90
57058;DHT22;74999;52.848;6.748;2024-03-06T03:29:19;5.80;99.90
57058;DHT22;74999;52.848;6.748;2024-03-06T03:31:46;5.90;99.90
57058;DHT22;74999;52.848;6.748;2024-03-06T03:34:12;6.00;99.90
57058;DHT22;74999;52.848;6.748;2024-03-06T03:36:41;5.80;99.90
57058;DHT22;74999;52.848;6.748;2024-03-06T03:39:07;5.90;99.90
57058;DHT22;74999;52.848;6.748;2024-03-06T03:41:47;6.20;99.90
57058;DHT22;74999;52.848;6.748;2024-03-06T03:44:14;6.00;99.90
57058;DHT22;74999;52.848;6.748;2024-03-06T03:46:40;5.90;99.90
57058;DHT22;74999;52.848;6.748;2024-03-06T03:49:06;6.00;99.90
57058;DHT22;74999;52.848;6.748;2024-03-06T03:51:31;6.00;99.90
57058;DHT22;74999;52.848;6.748;2024-03-06T03:53:57;5.90;99.90
57058;DHT22;74999;52.848;6.748;2024-03-06T03:56:22;5.90;99.90
57058;DHT22;74999;52.848;6.748;2024-03-06T03:58:48;5.90;99.90
57058;DHT22;74999;52.848;6.748;2024-03-06T04:01:14;5.90;99.90
57058;DHT22;74999;52.848;6.748;2024-03-06T04:03:40;5.90;99.90
57058;DHT22;74999;52.848;6.748;2024-03-06T04:06:08;6.00;99.90
57058;DHT22;74999;52.848;6.748;2024-03-06T04:08:34;5.90;99.90
57058;DHT22;74999;52.848;6.748;2024-03-06T04:10:59;5.80;99.90
57058;DHT22;74999;52.848;6.748;2024-03-06T04:13:25;5.90;99.90
57058;DHT22;74999;52.848;6.748;2024-03-06T04:15:51;5.80;99.90
57058;DHT22;74999;52.848;6.748;2024-03-06T04:18:17;5.80;99.90
57058;DHT22;74999;52.848;6.748;2024-03-06T04:20:42;5.90;99.90
57058;DHT22;74999;52.848;6.748;2024-03-06T04:23:09;5.80;99.90
57058;DHT22;74999;52.848;6.748;2024-03-06T04:25:34;5.90;99.90
57058;DHT22;74999;52.848;6.748;2024-03-06T04:28:00;5.70;99.90
57058;DHT22;74999;52.848;6.748;2024-03-06T04:30:27;5.80;99.90
57058;DHT22;74999;52.848;6.748;2024-03-06T04:32:53;5.90;99.90
57058;DHT22;74999;52.848;6.748;2024-03-06T04:35:18;6.10;99.90
57058;DHT22;74999;52.848;6.748;2024-03-06T04:37:44;6.10;99.90
57058;DHT22;74999;52.848;6.748;2024-03-06T04:40:10;6.00;99.90
57058;DHT22;74999;52.848;6.748;2024-03-06T04:42:36;5.90;99.90
57058;DHT22;74999;52.848;6.748;2024-03-06T04:45:03;5.80;99.90
57058;DHT22;74999;52.848;6.748;2024-03-06T04:47:29;5.90;99.90
57058;DHT22;74999;52.848;6.748;2024-03-06T04:49:54;5.80;99.90
57058;DHT22;74999;52.848;6.748;2024-03-06T04:52:20;5.90;99.90
57058;DHT22;74999;52.848;6.748;2024-03-06T04:54:46;5.80;99.90
57058;DHT22;74999;52.848;6.748;2024-03-06T04:57:11;5.80;99.90
57058;DHT22;74999;52.848;6.748;2024-03-06T04:59:37;5.80;99.90
57058;DHT22;74999;52.848;6.748;2024-03-06T05:02:02;5.80;99.90
57058;DHT22;74999;52.848;6.748;2024-03-06T05:04:29;5.90;99.90
57058;DHT22;74999;52.848;6.748;2024-03-06T05:06:54;5.80;99.90
57058;DHT22;74999;52.848;6.748;2024-03-06T05:09:21;5.80;99.90
57058;DHT22;74999;52.848;6.748;2024-03-06T05:11:47;5.80;99.90
57058;DHT22;74999;52.848;6.748;2024-03-06T05:14:16;5.90;99.90
57058;DHT22;74999;52.848;6.748;2024-03-06T05:16:41;5.80;99.90
57058;DHT22;74999;52.848;6.748;2024-03-06T05:19:07;5.80;99.90
57058;DHT22;74999;52.848;6.748;2024-03-06T05:21:33;5.90;99.90
57058;DHT22;74999;52.848;6.748;2024-03-06T05:24:00;5.80;99.90
57058;DHT22;74999;52.848;6.748;2024-03-06T05:26:26;5.80;99.90
57058;DHT22;74999;52.848;6.748;2024-03-06T05:28:51;5.70;99.90
57058;DHT22;74999;52.848;6.748;2024-03-06T05:31:18;5.80;99.90
57058;DHT22;74999;52.848;6.748;2024-03-06T05:33:45;5.80;99.90
57058;DHT22;74999;52.848;6.748;2024-03-06T05:36:11;6.70;99.90
57058;DHT22;74999;52.848;6.748;2024-03-06T05:38:39;5.80;99.90
57058;DHT22;74999;52.848;6.748;2024-03-06T05:41:04;5.90;99.90
57058;DHT22;74999;52.848;6.748;2024-03-06T05:43:30;5.80;99.90
57058;DHT22;74999;52.848;6.748;2024-03-06T05:45:55;5.70;99.90
57058;DHT22;74999;52.848;6.748;2024-03-06T05:48:21;5.70;99.90
57058;DHT22;74999;52.848;6.748;2024-03-06T05:50:47;5.70;99.90
57058;DHT22;74999;52.848;6.748;2024-03-06T05:53:12;5.70;99.90
57058;DHT22;74999;52.848;6.748;2024-03-06T05:55:38;5.70;99.90
57058;DHT22;74999;52.848;6.748;2024-03-06T05:58:04;5.80;99.90
57058;DHT22;74999;52.848;6.748;2024-03-06T06:00:31;5.80;99.90
57058;DHT22;74999;52.848;6.748;2024-03-06T06:02:56;5.80;99.90
57058;DHT22;74999;52.848;6.748;2024-03-06T06:05:22;5.70;99.90
57058;DHT22;74999;52.848;6.748;2024-03-06T06:07:50;5.70;99.90
57058;DHT22;74999;52.848;6.748;2024-03-06T06:10:16;5.70;99.90
57058;DHT22;74999;52.848;6.748;2024-03-06T06:12:41;5.70;99.90
57058;DHT22;74999;52.848;6.748;2024-03-06T06:15:07;5.70;99.90
57058;DHT22;74999;52.848;6.748;2024-03-06T06:17:33;5.70;99.90
57058;DHT22;74999;52.848;6.748;2024-03-06T06:19:59;5.70;99.90
57058;DHT22;74999;52.848;6.748;2024-03-06T06:22:27;5.80;99.90
57058;DHT22;74999;52.848;6.748;2024-03-06T06:24:53;5.70;99.90
57058;DHT22;74999;52.848;6.748;2024-03-06T06:27:20;6.10;99.90
57058;DHT22;74999;52.848;6.748;2024-03-06T06:29:46;5.90;99.90
57058;DHT22;74999;52.848;6.748;2024-03-06T06:32:11;5.80;99.90
57058;DHT22;74999;52.848;6.748;2024-03-06T06:34:37;5.90;99.90
57058;DHT22;74999;52.848;6.748;2024-03-06T06:37:03;5.80;99.90
57058;DHT22;74999;52.848;6.748;2024-03-06T06:39:28;5.70;99.90
57058;DHT22;74999;52.848;6.748;2024-03-06T06:41:54;5.80;99.90
57058;DHT22;74999;52.848;6.748;2024-03-06T06:44:19;5.80;99.90
57058;DHT22;74999;52.848;6.748;2024-03-06T06:46:45;5.80;99.90
57058;DHT22;74999;52.848;6.748;2024-03-06T06:49:10;5.80;99.90
57058;DHT22;74999;52.848;6.748;2024-03-06T06:51:36;5.90;99.90
57058;DHT22;74999;52.848;6.748;2024-03-06T06:54:02;5.80;99.90
57058;DHT22;74999;52.848;6.748;2024-03-06T06:56:31;5.80;99.90
57058;DHT22;74999;52.848;6.748;2024-03-06T06:58:56;5.80;99.90
57058;DHT22;74999;52.848;6.748;2024-03-06T07:01:22;5.80;99.90
57058;DHT22;74999;52.848;6.748;2024-03-06T07:03:48;5.70;99.90
57058;DHT22;74999;52.848;6.748;2024-03-06T07:06:13;5.90;99.90
57058;DHT22;74999;52.848;6.748;2024-03-06T07:08:39;5.80;99.90
57058;DHT22;74999;52.848;6.748;2024-03-06T07:11:04;5.80;99.90
57058;DHT22;74999;52.848;6.748;2024-03-06T07:13:30;5.90;99.90
57058;DHT22;74999;52.848;6.748;2024-03-06T07:15:56;5.80;99.90
57058;DHT22;74999;52.848;6.748;2024-03-06T07:18:22;5.90;99.90
57058;DHT22;74999;52.848;6.748;2024-03-06T07:20:47;5.80;99.90
57058;DHT22;74999;52.848;6.748;2024-03-06T07:23:13;5.80;99.90
57058;DHT22;74999;52.848;6.748;2024-03-06T07:25:39;5.90;99.90
57058;DHT22;74999;52.848;6.748;2024-03-06T07:28:05;6.10;99.90
57058;DHT22;74999;52.848;6.748;2024-03-06T07:30:30;6.10;99.90
57058;DHT22;74999;52.848;6.748;2024-03-06T07:32:56;5.90;99.90
57058;DHT22;74999;52.848;6.748;2024-03-06T07:35:23;6.00;99.90
57058;DHT22;74999;52.848;6.748;2024-03-06T07:37:49;6.00;99.90
57058;DHT22;74999;52.848;6.748;2024-03-06T07:40:14;6.00;99.90
57058;DHT22;74999;52.848;6.748;2024-03-06T07:42:40;6.10;99.90
57058;DHT22;74999;52.848;6.748;2024-03-06T07:45:06;5.90;99.90
57058;DHT22;74999;52.848;6.748;2024-03-06T07:47:35;6.00;99.90
57058;DHT22;74999;52.848;6.748;2024-03-06T07:50:04;5.90;99.90
57058;DHT22;74999;52.848;6.748;2024-03-06T07:52:31;5.90;99.90
57058;DHT22;74999;52.848;6.748;2024-03-06T07:54:57;5.90;99.90
57058;DHT22;74999;52.848;6.748;2024-03-06T07:57:23;6.00;99.90
57058;DHT22;74999;52.848;6.748;2024-03-06T07:59:49;5.90;99.90
57058;DHT22;74999;52.848;6.748;2024-03-06T08:02:16;6.00;99.90
57058;DHT22;74999;52.848;6.748;2024-03-06T08:04:42;5.90;99.90
57058;DHT22;74999;52.848;6.748;2024-03-06T08:07:08;6.00;99.90
57058;DHT22;74999;52.848;6.748;2024-03-06T08:09:34;5.90;99.90
57058;DHT22;74999;52.848;6.748;2024-03-06T08:11:59;6.00;99.90
57058;DHT22;74999;52.848;6.748;2024-03-06T08:14:25;6.10;99.90
57058;DHT22;74999;52.848;6.748;2024-03-06T08:16:51;6.00;99.90
57058;DHT22;74999;52.848;6.748;2024-03-06T08:19:16;6.00;99.90
57058;DHT22;74999;52.848;6.748;2024-03-06T08:21:42;6.10;99.90
57058;DHT22;74999;52.848;6.748;2024-03-06T08:24:08;5.90;99.90
57058;DHT22;74999;52.848;6.748;2024-03-06T08:26:33;6.10;99.90
57058;DHT22;74999;52.848;6.748;2024-03-06T08:28:59;6.00;99.90
57058;DHT22;74999;52.848;6.748;2024-03-06T08:31:24;5.90;99.90
57058;DHT22;74999;52.848;6.748;2024-03-06T08:33:51;6.00;99.90
57058;DHT22;74999;52.848;6.748;2024-03-06T08:36:19;6.00;99.90
57058;DHT22;74999;52.848;6.748;2024-03-06T08:38:44;6.00;99.90
57058;DHT22;74999;52.848;6.748;2024-03-06T08:41:10;6.10;99.90
57058;DHT22;74999;52.848;6.748;2024-03-06T08:43:35;6.10;99.90
57058;DHT22;74999;52.848;6.748;2024-03-06T08:46:01;6.00;99.90
57058;DHT22;74999;52.848;6.748;2024-03-06T08:48:27;6.10;99.90
57058;DHT22;74999;52.848;6.748;2024-03-06T08:50:52;6.10;99.90
57058;DHT22;74999;52.848;6.748;2024-03-06T08:53:18;6.40;99.90
57058;DHT22;74999;52.848;6.748;2024-03-06T08:55:44;6.40;99.90
57058;DHT22;74999;52.848;6.748;2024-03-06T08:58:09;6.40;99.90
57058;DHT22;74999;52.848;6.748;2024-03-06T09:00:35;6.40;99.90
57058;DHT22;74999;52.848;6.748;2024-03-06T09:03:01;6.30;99.90
57058;DHT22;74999;52.848;6.748;2024-03-06T09:05:26;6.30;99.90
57058;DHT22;74999;52.848;6.748;2024-03-06T09:07:52;6.40;99.90
57058;DHT22;74999;52.848;6.748;2024-03-06T09:10:18;6.40;99.90
57058;DHT22;74999;52.848;6.748;2024-03-06T09:12:45;6.30;99.90
57058;DHT22;74999;52.848;6.748;2024-03-06T09:15:11;6.30;99.90
57058;DHT22;74999;52.848;6.748;2024-03-06T09:17:37;6.30;99.90
57058;DHT22;74999;52.848;6.748;2024-03-06T09:20:05;6.30;99.90
57058;DHT22;74999;52.848;6.748;2024-03-06T09:22:40;6.30;99.90
57058;DHT22;74999;52.848;6.748;2024-03-06T09:25:06;6.30;99.90
57058;DHT22;74999;52.848;6.748;2024-03-06T09:27:32;6.30;99.90
57058;DHT22;74999;52.848;6.748;2024-03-06T09:29:58;6.40;99.90
57058;DHT22;74999;52.848;6.748;2024-03-06T09:32:24;6.30;99.90
57058;DHT22;74999;52.848;6.748;2024-03-06T09:34:51;6.30;99.90
57058;DHT22;74999;52.848;6.748;2024-03-06T09:37:18;6.30;99.90
57058;DHT22;74999;52.848;6.748;2024-03-06T09:39:43;6.80;99.90
57058;DHT22;74999;52.848;6.748;2024-03-06T09:42:13;6.50;99.90
57058;DHT22;74999;52.848;6.748;2024-03-06T09:44:39;6.40;99.90
57058;DHT22;74999;52.848;6.748;2024-03-06T09:47:05;6.40;99.90
57058;DHT22;74999;52.848;6.748;2024-03-06T09:49:31;6.40;99.90
57058;DHT22;74999;52.848;6.748;2024-03-06T09:51:58;6.40;99.90
57058;DHT22;74999;52.848;6.748;2024-03-06T09:54:25;6.50;99.90
57058;DHT22;74999;52.848;6.748;2024-03-06T09:56:52;6.50;99.90
57058;DHT22;74999;52.848;6.748;2024-03-06T09:59:18;6.50;99.90
57058;DHT22;74999;52.848;6.748;2024-03-06T10:01:57;6.60;99.90
57058;DHT22;74999;52.848;6.748;2024-03-06T10:04:24;6.50;99.90
57058;DHT22;74999;52.848;6.748;2024-03-06T10:06:57;6.60;99.90
57058;DHT22;74999;52.848;6.748;2024-03-06T10:09:23;6.60;99.90
57058;DHT22;74999;52.848;6.748;2024-03-06T10:11:49;6.70;99.90
57058;DHT22;74999;52.848;6.748;2024-03-06T10:14:18;6.60;99.90
57058;DHT22;74999;52.848;6.748;2024-03-06T10:16:56;6.70;99.90
57058;DHT22;74999;52.848;6.748;2024-03-06T10:19:24;6.80;99.90
57058;DHT22;74999;52.848;6.748;2024-03-06T10:21:50;7.00;99.90
57058;DHT22;74999;52.848;6.748;2024-03-06T10:24:21;6.80;99.90
57058;DHT22;74999;52.848;6.748;2024-03-06T10:26:48;6.80;99.90
57058;DHT22;74999;52.848;6.748;2024-03-06T10:29:18;6.80;99.90
57058;DHT22;74999;52.848;6.748;2024-03-06T10:31:58;6.90;99.90
57058;DHT22;74999;52.848;6.748;2024-03-06T10:34:26;6.90;99.90
57058;DHT22;74999;52.848;6.748;2024-03-06T10:39:20;7.00;99.90
57058;DHT22;74999;52.848;6.748;2024-03-06T10:41:46;7.40;99.90
57058;DHT22;74999;52.848;6.748;2024-03-06T10:44:16;7.10;99.90
57058;DHT22;74999;52.848;6.748;2024-03-06T10:46:44;7.30;99.90
57058;DHT22;74999;52.848;6.748;2024-03-06T10:49:13;7.20;99.90
57058;DHT22;74999;52.848;6.748;2024-03-06T10:51:44;7.20;99.90
57058;DHT22;74999;52.848;6.748;2024-03-06T10:54:11;7.30;99.90
57058;DHT22;74999;52.848;6.748;2024-03-06T10:56:40;7.20;99.90
57058;DHT22;74999;52.848;6.748;2024-03-06T10:59:13;7.10;99.90
57058;DHT22;74999;52.848;6.748;2024-03-06T11:01:39;7.30;99.90
57058;DHT22;74999;52.848;6.748;2024-03-06T11:04:06;7.20;99.90
57058;DHT22;74999;52.848;6.748;2024-03-06T11:06:33;7.20;99.90
57058;DHT22;74999;52.848;6.748;2024-03-06T11:09:00;7.20;99.90
57058;DHT22;74999;52.848;6.748;2024-03-06T11:11:27;7.20;99.90
57058;DHT22;74999;52.848;6.748;2024-03-06T11:14:00;7.20;99.90
57058;DHT22;74999;52.848;6.748;2024-03-06T11:16:30;7.20;99.90
57058;DHT22;74999;52.848;6.748;2024-03-06T11:19:08;7.20;99.90
57058;DHT22;74999;52.848;6.748;2024-03-06T11:21:35;7.30;99.90
57058;DHT22;74999;52.848;6.748;2024-03-06T11:24:17;7.20;99.90
57058;DHT22;74999;52.848;6.748;2024-03-06T11:26:55;7.70;99.90
57058;DHT22;74999;52.848;6.748;2024-03-06T11:29:27;7.30;99.90
57058;DHT22;74999;52.848;6.748;2024-03-06T11:32:05;7.40;99.90
57058;DHT22;74999;52.848;6.748;2024-03-06T11:34:36;7.30;99.90
57058;DHT22;74999;52.848;6.748;2024-03-06T11:37:06;7.30;99.90
57058;DHT22;74999;52.848;6.748;2024-03-06T11:39:37;7.40;99.90
57058;DHT22;74999;52.848;6.748;2024-03-06T11:42:03;7.50;99.90
57058;DHT22;74999;52.848;6.748;2024-03-06T11:44:34;7.40;99.90
57058;DHT22;74999;52.848;6.748;2024-03-06T11:47:02;7.40;99.90
57058;DHT22;74999;52.848;6.748;2024-03-06T11:49:30;7.40;99.90
57058;DHT22;74999;52.848;6.748;2024-03-06T11:54:31;7.60;99.90
57058;DHT22;74999;52.848;6.748;2024-03-06T11:56:59;7.50;99.90
57058;DHT22;74999;52.848;6.748;2024-03-06T12:01:58;7.70;99.90
57058;DHT22;74999;52.848;6.748;2024-03-06T12:04:27;7.60;99.90
57058;DHT22;74999;52.848;6.748;2024-03-06T12:06:59;8.40;99.90
57058;DHT22;74999;52.848;6.748;2024-03-06T12:09:26;7.70;99.90
57058;DHT22;74999;52.848;6.748;2024-03-06T12:11:52;7.60;99.90
57058;DHT22;74999;52.848;6.748;2024-03-06T12:14:19;7.70;99.90
57058;DHT22;74999;52.848;6.748;2024-03-06T12:17:01;7.80;99.90
57058;DHT22;74999;52.848;6.748;2024-03-06T12:19:33;7.80;99.90
57058;DHT22;74999;52.848;6.748;2024-03-06T12:22:00;7.70;99.90
57058;DHT22;74999;52.848;6.748;2024-03-06T12:24:26;8.70;99.90
57058;DHT22;74999;52.848;6.748;2024-03-06T12:27:04;8.60;99.90
57058;DHT22;74999;52.848;6.748;2024-03-06T12:29:31;7.90;99.90
57058;DHT22;74999;52.848;6.748;2024-03-06T12:32:00;7.90;99.90
57058;DHT22;74999;52.848;6.748;2024-03-06T12:34:26;7.90;99.90
57058;DHT22;74999;52.848;6.748;2024-03-06T12:36:52;8.20;99.90
57058;DHT22;74999;52.848;6.748;2024-03-06T12:39:18;8.30;99.90
57058;DHT22;74999;52.848;6.748;2024-03-06T12:41:49;8.20;99.90
57058;DHT22;74999;52.848;6.748;2024-03-06T12:44:14;8.30;99.90
57058;DHT22;74999;52.848;6.748;2024-03-06T12:46:40;8.30;99.90
57058;DHT22;74999;52.848;6.748;2024-03-06T12:49:06;8.40;99.90
57058;DHT22;74999;52.848;6.748;2024-03-06T12:51:32;8.60;99.90
57058;DHT22;74999;52.848;6.748;2024-03-06T12:53:58;8.50;99.90
57058;DHT22;74999;52.848;6.748;2024-03-06T12:56:24;8.50;99.90
57058;DHT22;74999;52.848;6.748;2024-03-06T12:58:51;8.50;99.90
57058;DHT22;74999;52.848;6.748;2024-03-06T13:01:17;8.60;99.90
57058;DHT22;74999;52.848;6.748;2024-03-06T13:03:43;8.60;99.90
57058;DHT22;74999;52.848;6.748;2024-03-06T13:06:08;8.70;99.90
57058;DHT22;74999;52.848;6.748;2024-03-06T13:08:35;8.80;99.90
57058;DHT22;74999;52.848;6.748;2024-03-06T13:11:01;8.80;99.90
57058;DHT22;74999;52.848;6.748;2024-03-06T13:13:27;8.80;99.90
57058;DHT22;74999;52.848;6.748;2024-03-06T13:15:56;8.90;99.90
57058;DHT22;74999;52.848;6.748;2024-03-06T13:18:22;9.00;99.90
57058;DHT22;74999;52.848;6.748;2024-03-06T13:20:48;10.50;99.90
57058;DHT22;74999;52.848;6.748;2024-03-06T13:23:14;9.40;99.90
57058;DHT22;74999;52.848;6.748;2024-03-06T13:25:40;9.60;99.90
57058;DHT22;74999;52.848;6.748;2024-03-06T13:28:05;10.60;99.90
57058;DHT22;74999;52.848;6.748;2024-03-06T13:30:31;10.10;99.90
57058;DHT22;74999;52.848;6.748;2024-03-06T13:32:57;10.60;99.90
57058;DHT22;74999;52.848;6.748;2024-03-06T13:35:23;10.70;99.90
57058;DHT22;74999;52.848;6.748;2024-03-06T13:37:49;11.00;99.90
57058;DHT22;74999;52.848;6.748;2024-03-06T13:40:17;11.30;99.90
57058;DHT22;74999;52.848;6.748;2024-03-06T13:42:43;11.50;99.90
57058;DHT22;74999;52.848;6.748;2024-03-06T13:45:09;11.60;99.90
57058;DHT22;74999;52.848;6.748;2024-03-06T13:47:41;11.80;99.90
57058;DHT22;74999;52.848;6.748;2024-03-06T13:50:15;12.40;99.90
57058;DHT22;74999;52.848;6.748;2024-03-06T13:52:41;11.80;99.90
57058;DHT22;74999;52.848;6.748;2024-03-06T13:55:08;11.60;99.90
57058;DHT22;74999;52.848;6.748;2024-03-06T13:57:35;11.50;99.90
57058;DHT22;74999;52.848;6.748;2024-03-06T14:00:05;11.50;99.90
57058;DHT22;74999;52.848;6.748;2024-03-06T14:02:32;11.40;99.90
57058;DHT22;74999;52.848;6.748;2024-03-06T14:04:57;11.50;99.90
57058;DHT22;74999;52.848;6.748;2024-03-06T14:07:23;11.50;99.90
57058;DHT22;74999;52.848;6.748;2024-03-06T14:09:52;11.40;99.90
57058;DHT22;74999;52.848;6.748;2024-03-06T14:12:18;11.40;99.90
57058;DHT22;74999;52.848;6.748;2024-03-06T14:14:44;11.70;99.90
57058;DHT22;74999;52.848;6.748;2024-03-06T14:17:11;12.00;99.90
57058;DHT22;74999;52.848;6.748;2024-03-06T14:19:38;12.80;99.90
57058;DHT22;74999;52.848;6.748;2024-03-06T14:22:04;12.10;99.90
57058;DHT22;74999;52.848;6.748;2024-03-06T14:24:30;12.00;99.90
57058;DHT22;74999;52.848;6.748;2024-03-06T14:26:56;12.10;99.90
57058;DHT22;74999;52.848;6.748;2024-03-06T14:29:21;12.40;99.90
57058;DHT22;74999;52.848;6.748;2024-03-06T14:31:47;13.90;99.90
57058;DHT22;74999;52.848;6.748;2024-03-06T14:34:13;13.20;99.90
57058;DHT22;74999;52.848;6.748;2024-03-06T14:36:39;14.30;99.90
57058;DHT22;74999;52.848;6.748;2024-03-06T14:39:05;14.10;99.90
57058;DHT22;74999;52.848;6.748;2024-03-06T14:41:32;13.90;99.90
57058;DHT22;74999;52.848;6.748;2024-03-06T14:43:58;14.40;99.60
57058;DHT22;74999;52.848;6.748;2024-03-06T14:46:23;13.00;99.60
57058;DHT22;74999;52.848;6.748;2024-03-06T14:48:49;12.90;99.90
57058;DHT22;74999;52.848;6.748;2024-03-06T14:51:14;13.10;99.90
57058;DHT22;74999;52.848;6.748;2024-03-06T14:53:40;12.80;99.90
57058;DHT22;74999;52.848;6.748;2024-03-06T14:56:07;13.00;99.90
57058;DHT22;74999;52.848;6.748;2024-03-06T14:58:32;12.60;99.90
57058;DHT22;74999;52.848;6.748;2024-03-06T15:00:58;12.20;99.90
57058;DHT22;74999;52.848;6.748;2024-03-06T15:03:23;11.80;99.90
57058;DHT22;74999;52.848;6.748;2024-03-06T15:05:49;11.80;99.90
57058;DHT22;74999;52.848;6.748;2024-03-06T15:08:15;11.70;99.90
57058;DHT22;74999;52.848;6.748;2024-03-06T15:10:41;11.70;99.90
57058;DHT22;74999;52.848;6.748;2024-03-06T15:13:06;11.70;99.90
57058;DHT22;74999;52.848;6.748;2024-03-06T15:15:35;12.00;99.90
57058;DHT22;74999;52.848;6.748;2024-03-06T15:18:00;12.50;99.90
57058;DHT22;74999;52.848;6.748;2024-03-06T15:20:26;13.40;99.90
57058;DHT22;74999;52.848;6.748;2024-03-06T15:22:53;13.50;99.70
57058;DHT22;74999;52.848;6.748;2024-03-06T15:25:19;13.50;98.80
57058;DHT22;74999;52.848;6.748;2024-03-06T15:27:45;13.60;94.40
57058;DHT22;74999;52.848;6.748;2024-03-06T15:30:12;13.70;95.60
57058;DHT22;74999;52.848;6.748;2024-03-06T15:32:39;12.90;96.30
57058;DHT22;74999;52.848;6.748;2024-03-06T15:35:05;12.30;97.00
57058;DHT22;74999;52.848;6.748;2024-03-06T15:37:31;12.00;97.90
57058;DHT22;74999;52.848;6.748;2024-03-06T15:39:57;11.70;98.60
57058;DHT22;74999;52.848;6.748;2024-03-06T15:42:24;11.50;99.30
57058;DHT22;74999;52.848;6.748;2024-03-06T15:44:53;11.20;99.80
57058;DHT22;74999;52.848;6.748;2024-03-06T15:47:19;11.20;99.90
57058;DHT22;74999;52.848;6.748;2024-03-06T15:49:46;10.90;99.90